Aérodrome :







RETROUVEZ-NOUS SUR...

 
LOGIN :

S'inscrire | Disclaimer

   EN    FR    IT 

 









Légende :    VFR   VFR Marginal   IFR   IFR Intensif   IFR Très Intensif
Visi : 
Plafond : 
>= 8 km
>= 3000ft
5 à 8 km
1000 à 3000 ft
1500m à 5 km
500 à 1000 ft
800 à 1500m
200 à 500 ft
< 800m
< 200 ft
Symboles :   Orages  Brouillard  Fortes neiges  Fortes précipitations  Vent > 20 kt






- Altitude de l'aérodrome : 21 ft
- Code IATA : YVM


CYVM - Qikiqtarjuac

DERNIER METAR :
  • 241700Z 19004KT 140V200 15SM FEW250 M30/M34 A2996 RMK CI1 CI TR SLP148

METARs EXPIRÉS :
  • 241600Z 18002KT 15SM FEW250 M29/M33 A2994 RMK CI1 SLP142
  • 241500Z VRB02KT 15SM FEW250 M30/M34 A2993 RMK CI1 CI TR SLP138

TAF TAF CYVM
Valide du 24 à 13h jusqu'au 25 à 01h UTC


241238Z 2413/2501 21008KT P6SM SCT020 BKN050
TEMPO 2413/2501 2SM -SN BKN020 RMK FCST BASED ON AUTO OBS. NXT FCST BY 241900Z



MET'MAP, la Météo Aéronautique d'un coup d'oeil ! - Copyright ORBIFLY Décembre 2007 - Disclaimer

ORBIFLY MET'MAP TEAM :

Programmation & Développement : Alexandra Zaïnal
Sur une idée originale de : Baudouin d'Aumeries
Assistance à la programmation : Marc-Olivier Méhu
Soutien technique & logistique : Manuel Goepfert

Contact : metmap@orbifly.com




SOURCES & CREDITS :

   NOAA